Time;durP1;ratioP1;P1;durP2;ratioP2;P2;SDS_P1;SDS_P2;PMS_P1;PMS_P2;Temp;Humidity;BMP_temperature;BMP_pressure;BME280_temperature;BME280_humidity;BME280_pressure;Samples;Min_cycle;Max_cycle;Signal;HPM_P1;HPM_P2
2021/09/30 00:07:07;;;;;;;1.10;1.05;;;;;;;5.50;73.17;101902.59;6432218;22;20021;-75
2021/09/30 00:09:52;;;;;;;0.82;0.82;;;;;;;5.49;73.76;101906.09;6430889;22;20065;-78
2021/09/30 00:12:42;;;;;;;1.10;1.10;;;;;;;5.49;73.32;101900.91;6361166;22;20025;-77
2021/09/30 00:16:04;;;;;;;0.90;0.90;;;;;;;5.47;73.83;101897.44;6397834;22;20101;-77
2021/09/30 00:34:10;;;;;;;1.35;1.35;;;;;;;5.47;74.28;101907.78;6397959;22;20028;-79
2021/09/30 00:46:12;;;;;;;1.85;1.77;;;;;;;5.45;74.73;101906.94;6362875;22;20099;-76
2021/09/30 00:52:06;;;;;;;0.88;0.88;;;;;;;5.40;75.69;101913.88;6373304;22;20025;-79
2021/09/30 02:19:06;;;;;;;1.30;1.30;;;;;;;5.32;78.95;101936.31;6379543;22;20032;-78
2021/09/30 02:58:26;;;;;;;2.30;2.05;;;;;;;5.19;78.51;101923.38;6398935;22;20550;-78
2021/09/30 03:01:18;;;;;;;1.40;1.40;;;;;;;5.13;79.67;101932.84;6379717;22;20094;-78
2021/09/30 03:04:04;;;;;;;2.22;2.13;;;;;;;5.27;77.38;101933.69;6375585;22;20117;-74
2021/09/30 03:06:48;;;;;;;11.25;3.50;;;;;;;5.22;78.75;101931.13;6396893;22;20024;-73
2021/09/30 03:09:44;;;;;;;5.57;1.52;;;;;;;5.24;78.78;101937.16;6374957;22;20028;-73
2021/09/30 03:12:29;;;;;;;2.80;2.60;;;;;;;5.20;79.16;101932.84;6397170;22;20028;-74
2021/09/30 03:23:58;;;;;;;1.63;1.60;;;;;;;5.12;80.83;101934.56;6349192;22;20117;-74
2021/09/30 03:26:44;;;;;;;1.30;1.30;;;;;;;5.12;80.76;101928.53;6396472;22;20373;-74
2021/09/30 03:29:28;;;;;;;2.70;2.58;;;;;;;5.09;80.14;101929.41;6396789;22;20050;-73
2021/09/30 03:32:13;;;;;;;1.92;1.83;;;;;;;5.10;80.59;101928.53;6396860;22;20108;-73
2021/09/30 03:35:13;;;;;;;1.92;1.88;;;;;;;5.12;80.35;101931.97;6396926;22;20025;-74
2021/09/30 03:38:02;;;;;;;3.10;3.00;;;;;;;5.12;79.97;101934.56;6374262;22;20102;-73
2021/09/30 03:40:47;;;;;;;2.08;1.90;;;;;;;5.13;80.91;101933.72;6396323;22;20058;-73
2021/09/30 03:43:31;;;;;;;1.95;1.88;;;;;;;5.14;78.15;101927.66;6374386;22;20395;-73
2021/09/30 03:46:17;;;;;;;1.10;1.10;;;;;;;5.25;78.54;101928.53;6396860;22;20380;-72
2021/09/30 03:49:27;;;;;;;4.32;2.58;;;;;;;5.33;78.26;101935.44;6396929;22;20032;-73
2021/09/30 03:52:19;;;;;;;3.08;2.88;;;;;;;5.31;78.96;101937.16;6392461;22;20056;-74
2021/09/30 03:55:57;;;;;;;;;;;;;;;5.23;78.58;101938.00;6419813;22;20472;-73
2021/09/30 04:00:55;;;;;;;2.28;1.95;;;;;;;5.19;79.95;101949.25;6396085;22;20025;-74
2021/09/30 04:03:41;;;;;;;1.80;1.80;;;;;;;5.09;80.09;101931.13;6396273;22;20040;-73
2021/09/30 04:06:26;;;;;;;1.30;1.30;;;;;;;5.21;78.06;101938.88;6397887;22;20028;-72
2021/09/30 04:09:10;;;;;;;4.68;3.45;;;;;;;5.25;79.35;101944.06;6396399;22;20028;-72
2021/09/30 04:12:00;;;;;;;2.15;2.05;;;;;;;5.26;78.80;101944.94;6396046;22;20033;-73
2021/09/30 04:14:44;;;;;;;2.25;2.15;;;;;;;5.30;79.53;101948.41;6396097;22;20029;-72
2021/09/30 04:17:29;;;;;;;1.70;1.60;;;;;;;5.33;78.82;101945.81;6396789;22;20029;-72
2021/09/30 04:20:13;;;;;;;1.58;1.58;;;;;;;5.33;78.11;101940.63;6396898;22;20028;-72
2021/09/30 04:23:03;;;;;;;1.70;1.63;;;;;;;5.31;77.84;101947.50;6396258;22;20025;-72
2021/09/30 04:25:47;;;;;;;1.60;1.50;;;;;;;5.31;78.83;101952.69;6396170;22;20044;-73
2021/09/30 04:28:32;;;;;;;1.92;1.83;;;;;;;5.25;78.51;101946.66;6395103;22;20705;-73
2021/09/30 04:31:17;;;;;;;1.67;1.67;;;;;;;5.23;77.81;101950.97;6396725;22;20073;-73
2021/09/30 04:34:06;;;;;;;5.30;1.67;;;;;;;5.22;78.19;101946.66;6398031;22;20025;-74
2021/09/30 04:36:50;;;;;;;1.20;1.20;;;;;;;5.25;79.02;101949.25;6397245;22;20078;-73
2021/09/30 04:39:36;;;;;;;1.52;1.50;;;;;;;5.27;78.37;101958.75;6398480;22;20045;-73
2021/09/30 04:42:21;;;;;;;2.80;1.35;;;;;;;5.28;78.25;101958.75;6398191;22;20415;-73
2021/09/30 04:45:06;;;;;;;2.70;2.60;;;;;;;5.30;78.81;101961.34;6398530;22;20170;-73
2021/09/30 04:47:51;;;;;;;2.25;1.67;;;;;;;5.22;78.82;101948.38;6398160;22;20078;-73
2021/09/30 04:50:35;;;;;;;1.60;1.60;;;;;;;5.29;79.59;101951.84;6376205;22;20426;-73
2021/09/30 04:53:20;;;;;;;1.80;1.73;;;;;;;5.32;78.76;101951.84;6398665;22;20075;-73
2021/09/30 04:56:05;;;;;;;1.40;1.40;;;;;;;5.34;78.55;101955.28;6398348;22;20033;-73
2021/09/30 04:58:55;;;;;;;1.95;1.85;;;;;;;5.38;78.65;101954.44;6376985;22;20037;-73
2021/09/30 05:01:39;;;;;;;1.85;1.85;;;;;;;5.34;78.67;101950.09;6376009;22;20025;-73
2021/09/30 05:04:29;;;;;;;2.75;1.77;;;;;;;5.45;78.84;101963.94;6398606;22;20067;-73
2021/09/30 05:07:14;;;;;;;1.65;1.65;;;;;;;5.44;78.59;101962.19;6420861;22;20060;-73
2021/09/30 05:10:02;;;;;;;14.23;2.17;;;;;;;5.44;78.89;101967.38;6398953;22;20032;-72
2021/09/30 05:12:49;;;;;;;2.92;1.52;;;;;;;5.41;78.11;101957.88;6397724;22;20029;-74
2021/09/30 05:15:36;;;;;;;1.52;1.52;;;;;;;5.40;78.33;101974.28;6398134;22;20463;-73
2021/09/30 05:18:21;;;;;;;1.90;1.80;;;;;;;5.42;77.10;101964.81;6398283;22;20024;-74
2021/09/30 05:21:06;;;;;;;1.88;1.77;;;;;;;5.46;77.36;101965.66;6397676;22;20055;-73
2021/09/30 05:23:51;;;;;;;1.73;1.63;;;;;;;5.44;77.58;101969.97;6397805;22;20024;-73
2021/09/30 05:26:36;;;;;;;1.52;1.50;;;;;;;5.39;78.00;101963.94;6398255;22;20039;-73
2021/09/30 05:29:21;;;;;;;2.33;2.22;;;;;;;5.43;77.00;101965.66;6375771;22;20061;-72
2021/09/30 05:32:24;;;;;;;2.92;2.83;;;;;;;5.48;76.67;101971.69;6399872;22;20403;-73
2021/09/30 05:35:12;;;;;;;1.42;1.42;;;;;;;5.45;76.50;101958.75;6404917;22;20055;-73
2021/09/30 05:38:08;;;;;;;1.88;1.77;;;;;;;5.58;75.88;101973.44;6402261;22;20029;-73
2021/09/30 05:40:54;;;;;;;1.88;1.55;;;;;;;5.57;75.46;101967.38;6376249;22;20365;-71
2021/09/30 05:43:41;;;;;;;2.38;2.28;;;;;;;5.64;74.97;101963.06;6398594;22;20040;-73
2021/09/30 05:49:40;;;;;;;1.48;1.48;;;;;;;5.82;74.79;101960.47;6387956;22;20024;-71
2021/09/30 05:52:56;;;;;;;2.58;1.65;;;;;;;5.93;73.68;101966.50;6397515;22;20030;-71
2021/09/30 05:56:05;;;;;;;1.35;1.35;;;;;;;5.90;73.99;101966.50;6398888;22;20029;-72
2021/09/30 05:58:49;;;;;;;2.10;2.00;;;;;;;5.94;73.19;101963.06;6374892;22;20029;-71
2021/09/30 06:10:34;;;;;;;1.75;1.75;;;;;;;6.10;73.46;101967.34;6397977;22;20028;-71
2021/09/30 06:13:33;;;;;;;1.38;1.38;;;;;;;6.15;72.45;101962.16;6399161;22;20052;-72
2021/09/30 06:16:21;;;;;;;1.25;1.25;;;;;;;6.09;72.95;101963.00;6399030;22;20050;-71
2021/09/30 06:19:06;;;;;;;1.60;1.55;;;;;;;6.20;72.67;101968.16;6397535;22;20109;-72
2021/09/30 06:21:53;;;;;;;7.32;1.65;;;;;;;6.17;73.27;101966.47;6397421;22;20056;-72
2021/09/30 06:24:38;;;;;;;1.05;1.05;;;;;;;6.19;73.08;101966.44;6397044;22;20051;-75
2021/09/30 06:27:23;;;;;;;1.95;1.95;;;;;;;6.13;72.85;101956.97;6397744;22;20419;-75
2021/09/30 06:30:11;;;;;;;1.65;1.65;;;;;;;6.10;73.08;101964.75;6398250;22;20056;-75
2021/09/30 06:32:58;;;;;;;1.63;1.60;;;;;;;6.07;73.48;101971.66;6399117;22;20025;-80
2021/09/30 06:36:04;;;;;;;1.90;1.90;;;;;;;6.11;73.80;101966.47;6397336;22;20162;-77
2021/09/30 06:38:49;;;;;;;1.95;1.95;;;;;;;6.22;72.85;101972.47;6397858;22;20029;-75
2021/09/30 06:41:34;;;;;;;1.45;1.45;;;;;;;6.39;72.00;101966.38;6397893;22;20078;-73
2021/09/30 06:44:44;;;;;;;2.00;2.00;;;;;;;6.43;72.41;101973.28;6394072;22;20025;-77
2021/09/30 06:47:47;;;;;;;1.77;1.77;;;;;;;6.24;72.36;101968.16;6397511;22;20178;-74
2021/09/30 06:50:47;;;;;;;2.38;2.28;;;;;;;6.34;72.69;101962.94;6395853;22;20025;-75
2021/09/30 06:53:54;;;;;;;1.75;1.75;;;;;;;6.38;72.65;101960.31;6397431;22;20059;-72
2021/09/30 06:57:05;;;;;;;1.67;1.67;;;;;;;6.54;72.83;101962.00;6373758;22;20078;-77
2021/09/30 07:00:12;;;;;;;2.35;2.25;;;;;;;6.55;72.30;101960.25;6396253;22;20028;-76
2021/09/30 07:03:16;;;;;;;2.33;1.67;;;;;;;6.71;72.33;101949.78;6397688;22;20110;-76
2021/09/30 07:06:29;;;;;;;1.83;1.73;;;;;;;6.55;72.73;101955.06;6396711;22;20058;-81
2021/09/30 07:09:14;;;;;;;1.80;1.70;;;;;;;6.47;73.65;101960.31;6373659;22;20414;-75
2021/09/30 07:11:59;;;;;;;2.55;2.45;;;;;;;6.55;72.97;101955.06;6373478;22;20108;-74
2021/09/30 07:14:44;;;;;;;1.58;1.58;;;;;;;6.39;72.80;101956.00;6397898;22;20075;-75
2021/09/30 07:17:29;;;;;;;3.08;2.88;;;;;;;6.68;71.99;101964.50;6395496;22;20029;-74
2021/09/30 07:20:13;;;;;;;2.50;2.40;;;;;;;6.57;72.65;101953.34;6397915;22;20067;-71
2021/09/30 07:22:58;;;;;;;3.40;2.05;;;;;;;6.73;72.60;101962.78;6375128;22;20029;-75
2021/09/30 07:25:42;;;;;;;2.28;2.17;;;;;;;6.78;72.00;101961.00;6397647;22;20515;-76
2021/09/30 07:28:28;;;;;;;3.22;3.03;;;;;;;6.84;71.74;101963.56;6396117;22;20050;-81
2021/09/30 07:31:12;;;;;;;1.40;1.38;;;;;;;6.86;71.55;101969.63;6397286;22;20028;-73
2021/09/30 07:33:56;;;;;;;1.95;1.85;;;;;;;6.73;73.13;101967.97;6397050;22;20807;-73
2021/09/30 07:36:42;;;;;;;2.15;2.10;;;;;;;6.59;74.04;101964.56;6397074;22;20372;-75
2021/09/30 07:39:28;;;;;;;2.45;2.30;;;;;;;6.57;73.52;101971.50;6395633;22;20031;-75
2021/09/30 07:42:12;;;;;;;1.90;1.88;;;;;;;6.51;73.59;101961.16;6396895;22;20484;-73
2021/09/30 07:44:57;;;;;;;1.85;1.85;;;;;;;6.51;74.24;101955.97;6395562;22;20066;-76
2021/09/30 07:47:41;;;;;;;1.50;1.50;;;;;;;6.49;73.01;101955.09;6397305;22;20064;-77
2021/09/30 07:50:26;;;;;;;1.25;1.25;;;;;;;6.63;73.19;101961.09;6373484;22;20062;-77
2021/09/30 07:53:13;;;;;;;1.73;1.52;;;;;;;6.68;72.49;101959.31;6395282;22;20526;-75
2021/09/30 07:55:57;;;;;;;1.88;1.77;;;;;;;6.70;72.30;101960.19;6396922;22;20029;-76
2021/09/30 07:58:42;;;;;;;1.17;1.17;;;;;;;6.53;73.41;101959.41;6396013;22;20520;-76
2021/09/30 08:01:26;;;;;;;4.75;2.38;;;;;;;6.65;73.75;101964.53;6397519;22;20029;-75
2021/09/30 23:18:54;;;;;;;3.22;3.10;;;;;;;6.10;82.49;101954.38;6282044;22;20023;-76
2021/09/30 23:21:39;;;;;;;3.92;3.72;;;;;;;6.15;82.37;101965.56;6272680;22;20493;-75
2021/09/30 23:24:24;;;;;;;3.05;2.95;;;;;;;6.11;82.44;101965.59;6272434;22;20362;-75
2021/09/30 23:27:08;;;;;;;12.13;4.50;;;;;;;6.07;82.91;101964.75;6250081;22;20026;-76
2021/09/30 23:29:53;;;;;;;4.80;3.70;;;;;;;6.07;83.85;101969.94;6272753;22;20026;-75
2021/09/30 23:32:37;;;;;;;3.40;3.20;;;;;;;6.05;83.06;101961.28;6272461;22;20034;-75
2021/09/30 23:35:22;;;;;;;4.63;4.32;;;;;;;6.02;82.23;101950.91;6272293;22;20081;-76
2021/09/30 23:38:09;;;;;;;9.43;2.97;;;;;;;6.09;82.43;101965.59;6272521;22;20035;-76
2021/09/30 23:40:53;;;;;;;3.10;2.90;;;;;;;6.12;82.65;101963.00;6271321;22;20490;-75
2021/09/30 23:43:38;;;;;;;12.32;3.92;;;;;;;6.11;81.36;101965.59;6272366;22;20088;-76
2021/09/30 23:46:22;;;;;;;3.70;3.08;;;;;;;6.10;82.58;101969.94;6271377;22;20042;-75
2021/09/30 23:49:07;;;;;;;2.42;2.33;;;;;;;6.13;82.07;101979.41;6280665;22;20033;-74
2021/09/30 23:51:51;;;;;;;8.55;6.05;;;;;;;6.15;81.73;101972.53;6284734;22;20066;-73
2021/09/30 23:54:36;;;;;;;11.38;5.10;;;;;;;6.14;81.81;101982.03;6283923;22;20076;-74
2021/09/30 23:57:20;;;;;;;4.30;4.10;;;;;;;6.08;81.89;101971.69;6271510;22;20043;-74
